createdAt,value
2023-04-04T00:00:40.912Z,81.35
2023-04-04T00:05:42.805Z,81.58
2023-04-04T00:10:45.485Z,81.01
2023-04-04T00:15:46.956Z,81.81
2023-04-04T00:20:48.419Z,81.56
2023-04-04T00:25:53.770Z,81.55
2023-04-04T00:30:55.610Z,81.52
2023-04-04T00:35:57.533Z,81.43
2023-04-04T00:40:59.515Z,81.61
2023-04-04T00:46:01.081Z,81.87
2023-04-04T00:51:02.854Z,81.50
2023-04-04T00:56:04.374Z,81.74
2023-04-04T01:01:06.388Z,81.14
2023-04-04T01:06:09.338Z,81.50
2023-04-04T01:11:11.310Z,81.61
2023-04-04T01:16:12.972Z,81.76
2023-04-04T01:21:17.171Z,81.70
2023-04-04T01:26:21.632Z,81.92
2023-04-04T01:31:56.138Z,82.43
2023-04-04T01:37:06.483Z,82.29
2023-04-04T01:42:10.032Z,82.50
2023-04-04T01:47:13.037Z,82.37
2023-04-04T01:52:15.082Z,81.78
2023-04-04T01:57:16.763Z,82.58
2023-04-04T02:02:18.667Z,81.96
2023-04-04T02:07:20.606Z,82.22
2023-04-04T02:12:22.332Z,82.20
2023-04-04T02:17:24.415Z,82.38
2023-04-04T02:22:26.036Z,82.46
2023-04-04T02:27:27.477Z,81.98
2023-04-04T02:32:28.981Z,82.20
2023-04-04T02:37:30.529Z,82.56
2023-04-04T02:42:33.018Z,82.42
2023-04-04T02:47:34.564Z,82.40
2023-04-04T02:52:36.668Z,81.90
2023-04-04T02:57:51.083Z,82.36
2023-04-04T03:02:57.080Z,82.37
2023-04-04T03:08:05.062Z,81.91
2023-04-04T03:13:06.794Z,82.08
2023-04-04T03:18:09.089Z,82.20
2023-04-04T03:23:10.697Z,82.43
2023-04-04T03:28:12.644Z,82.03
2023-04-04T03:33:15.182Z,82.80
2023-04-04T03:38:16.688Z,82.47
2023-04-04T03:43:18.114Z,82.86
2023-04-04T03:48:19.525Z,83.41
2023-04-04T03:53:21.100Z,83.15
2023-04-04T03:58:23.172Z,83.85
2023-04-04T04:03:26.063Z,84.46
2023-04-04T04:08:27.771Z,83.58
2023-04-04T04:13:29.251Z,84.05
2023-04-04T04:18:30.885Z,83.77
2023-04-04T04:23:32.950Z,83.87
2023-04-04T04:28:34.552Z,84.41
2023-04-04T04:33:41.232Z,83.96
2023-04-04T04:38:43.341Z,84.60
2023-04-04T04:43:45.787Z,84.52
2023-04-04T04:48:47.486Z,84.03
2023-04-04T04:53:53.371Z,84.19
2023-04-04T04:58:55.554Z,84.00
2023-04-04T05:04:00.436Z,84.42
2023-04-04T05:09:12.015Z,84.21
2023-04-04T05:14:14.103Z,84.38
2023-04-04T05:19:24.229Z,84.04
2023-04-04T05:24:30.025Z,83.98
2023-04-04T05:29:33.649Z,84.50
2023-04-04T05:34:36.962Z,84.42
2023-04-04T05:39:42.355Z,84.33
2023-04-04T05:44:45.343Z,84.41
2023-04-04T05:49:46.992Z,84.42
2023-04-04T05:54:48.598Z,84.42
2023-04-04T05:59:58.776Z,84.89
2023-04-04T06:05:00.887Z,84.27
2023-04-04T06:10:13.943Z,84.54
2023-04-04T06:15:15.565Z,84.30
2023-04-04T06:20:20.885Z,84.25
2023-04-04T06:25:24.441Z,84.76
2023-04-04T06:30:26.720Z,84.42
2023-04-04T06:35:28.247Z,84.13
2023-04-04T06:40:34.580Z,83.73
2023-04-04T06:45:36.413Z,83.84
2023-04-04T06:50:38.546Z,83.80
2023-04-04T06:55:44.088Z,83.75
2023-04-04T07:00:46.123Z,83.43
2023-04-04T07:05:47.819Z,83.90
2023-04-04T07:10:49.469Z,83.63
2023-04-04T07:15:51.052Z,84.03
2023-04-04T07:20:52.458Z,84.05
2023-04-04T07:25:53.978Z,84.69
2023-04-04T07:30:59.653Z,84.13
2023-04-04T07:36:01.971Z,84.89
2023-04-04T07:41:04.367Z,84.06
2023-04-04T07:46:06.020Z,84.08
2023-04-04T07:51:07.519Z,84.99
2023-04-04T07:56:08.997Z,84.80
2023-04-04T08:01:10.562Z,84.63
2023-04-04T08:06:12.655Z,83.60
2023-04-04T08:11:14.114Z,83.47
2023-04-04T08:16:15.650Z,82.84
2023-04-04T08:21:17.612Z,82.65
2023-04-04T08:26:19.051Z,81.46
2023-04-04T08:31:20.532Z,81.77
2023-04-04T08:36:22.472Z,80.42
2023-04-04T08:41:25.128Z,80.35
2023-04-04T08:46:27.940Z,79.13
2023-04-04T08:51:31.697Z,78.89
2023-04-04T08:56:35.834Z,78.10
2023-04-04T09:01:37.976Z,78.10
2023-04-04T09:06:40.197Z,77.17
2023-04-04T09:11:42.987Z,77.34
2023-04-04T09:16:44.450Z,77.06
2023-04-04T09:21:49.844Z,74.82
2023-04-04T09:26:53.201Z,74.36
2023-04-04T09:31:55.113Z,73.69
2023-04-04T09:36:56.949Z,74.31
2023-04-04T09:41:59.263Z,73.36
2023-04-04T09:47:30.408Z,70.83
2023-04-04T09:52:35.854Z,71.85
2023-04-04T09:57:37.984Z,71.15
2023-04-04T10:02:46.871Z,70.75
2023-04-04T10:07:48.415Z,70.89
2023-04-04T10:12:52.555Z,70.49
2023-04-04T10:17:55.402Z,72.08
2023-04-04T10:22:57.174Z,71.16
2023-04-04T10:27:58.666Z,70.64
2023-04-04T10:33:11.582Z,69.65
2023-04-04T10:38:14.267Z,69.80
2023-04-04T10:43:22.262Z,68.51
2023-04-04T10:48:26.035Z,67.37
2023-04-04T10:53:31.798Z,65.94
2023-04-04T10:58:39.652Z,65.83
2023-04-04T11:04:18.722Z,65.16
2023-04-04T11:09:56.530Z,64.42
2023-04-04T11:15:04.245Z,65.53
2023-04-04T11:20:08.677Z,65.72
2023-04-04T11:25:32.991Z,65.10
2023-04-04T11:30:44.071Z,64.87
2023-04-04T11:35:50.128Z,64.45
2023-04-04T11:40:56.485Z,63.87
2023-04-04T11:46:07.898Z,63.59
2023-04-04T11:51:11.473Z,64.77
2023-04-04T11:56:15.911Z,63.36
2023-04-04T12:01:19.109Z,64.19
2023-04-04T12:06:20.961Z,64.53
2023-04-04T12:11:25.613Z,64.11
2023-04-04T12:16:28.335Z,64.05
2023-04-04T12:21:33.258Z,62.68
2023-04-04T12:26:37.748Z,63.50
2023-04-04T12:31:42.808Z,62.39
2023-04-04T12:36:47.652Z,61.53
2023-04-04T12:41:57.794Z,61.97
2023-04-04T12:47:07.525Z,61.63
2023-04-04T12:52:33.638Z,61.56
2023-04-04T12:57:36.619Z,61.14
2023-04-04T13:02:39.029Z,65.10
2023-04-04T13:07:46.213Z,63.66
2023-04-04T13:13:02.272Z,62.12
2023-04-04T13:18:23.697Z,60.96
2023-04-04T13:23:25.403Z,61.83
2023-04-04T13:28:27.178Z,60.65
2023-04-04T13:33:28.723Z,60.19
2023-04-04T13:38:30.580Z,58.99
2023-04-04T13:43:32.052Z,58.25
2023-04-04T13:48:33.608Z,56.24
2023-04-04T13:53:35.070Z,56.42
2023-04-04T13:58:36.519Z,56.52
2023-04-04T14:03:37.972Z,55.88
2023-04-04T14:08:39.678Z,56.53
2023-04-04T14:13:41.758Z,56.58
2023-04-04T14:18:44.464Z,58.44
2023-04-04T14:23:45.926Z,57.42
2023-04-04T14:28:48.263Z,58.37
2023-04-04T14:33:49.772Z,58.37
2023-04-04T14:38:51.385Z,58.86
2023-04-04T14:43:52.875Z,57.90
2023-04-04T14:48:54.348Z,57.04
2023-04-04T14:53:59.299Z,57.77
2023-04-04T14:59:01.893Z,58.60
2023-04-04T15:04:03.698Z,59.22
2023-04-04T15:09:06.124Z,58.57
2023-04-04T15:14:07.805Z,56.20
2023-04-04T15:19:11.030Z,55.89
2023-04-04T15:24:12.433Z,55.99
2023-04-04T15:29:15.514Z,53.43
2023-04-04T15:34:16.943Z,53.80
2023-04-04T15:39:18.353Z,53.47
2023-04-04T15:44:20.067Z,52.80
2023-04-04T15:49:21.501Z,54.42
2023-04-04T15:54:23.307Z,55.13
2023-04-04T15:59:24.906Z,55.79
2023-04-04T16:04:26.518Z,56.24
2023-04-04T16:09:28.021Z,56.64
2023-04-04T16:14:29.648Z,57.59
2023-04-04T16:19:31.163Z,57.91
2023-04-04T16:24:32.646Z,58.06
2023-04-04T16:29:34.219Z,57.13
2023-04-04T16:34:38.776Z,57.26
2023-04-04T16:39:40.891Z,57.75
2023-04-04T16:44:42.312Z,57.67
2023-04-04T16:49:43.799Z,57.91
2023-04-04T16:54:45.279Z,57.64
2023-04-04T16:59:46.696Z,56.88
2023-04-04T17:04:48.200Z,57.31
2023-04-04T17:09:51.348Z,58.06
2023-04-04T17:14:53.311Z,59.08
2023-04-04T17:19:54.811Z,58.87
2023-04-04T17:24:56.264Z,58.42
2023-04-04T17:29:58.771Z,59.00
2023-04-04T17:35:00.450Z,59.41
2023-04-04T17:40:05.264Z,59.67
2023-04-04T21:18:07.769Z,72.12
2023-04-04T21:23:26.108Z,71.46
2023-04-04T21:28:45.866Z,71.76
2023-04-04T21:33:49.219Z,71.64
2023-04-04T21:39:13.947Z,71.65
2023-04-04T21:44:15.628Z,72.41
2023-04-04T21:49:17.927Z,72.42
2023-04-04T21:54:19.524Z,72.93
2023-04-04T21:59:20.956Z,73.13
2023-04-04T22:04:22.475Z,73.24
2023-04-04T22:09:25.648Z,73.61
2023-04-04T22:14:27.212Z,74.27
2023-04-04T22:19:34.609Z,74.34
2023-04-04T22:24:36.010Z,73.95
2023-04-04T22:29:37.414Z,73.97
2023-04-04T22:34:38.818Z,74.15
2023-04-04T22:39:42.642Z,73.86
2023-04-04T22:44:44.430Z,74.67
2023-04-04T22:49:48.956Z,74.31
2023-04-04T22:54:50.372Z,74.71
2023-04-04T22:59:51.810Z,74.97
2023-04-04T23:04:58.523Z,74.61
2023-04-04T23:10:00.253Z,74.65
2023-04-04T23:15:03.088Z,74.80
2023-04-04T23:20:07.756Z,75.06
2023-04-04T23:25:09.354Z,74.43
2023-04-04T23:30:11.616Z,74.96
2023-04-04T23:35:13.068Z,74.51
2023-04-04T23:40:14.576Z,74.99
2023-04-04T23:45:16.181Z,75.01
2023-04-04T23:50:19.006Z,75.23
2023-04-04T23:55:20.523Z,75.74
